createdAt,value
2023-05-24T00:01:19.629Z,11.07
2023-05-24T00:03:50.891Z,11.08
2023-05-24T00:06:21.544Z,11.09
2023-05-24T00:08:50.509Z,11.07
2023-05-24T00:11:19.773Z,10.99
2023-05-24T00:13:49.561Z,10.95
2023-05-24T00:16:18.120Z,10.87
2023-05-24T00:18:46.522Z,10.77
2023-05-24T00:21:16.792Z,10.71
2023-05-24T00:23:45.127Z,10.64
2023-05-24T00:26:13.458Z,10.57
2023-05-24T00:28:41.848Z,10.49
2023-05-24T00:31:10.143Z,10.46
2023-05-24T00:33:38.417Z,10.42
2023-05-24T00:36:06.879Z,10.40
2023-05-24T00:38:35.189Z,10.38
2023-05-24T00:41:04.404Z,10.36
2023-05-24T00:43:32.801Z,10.33
2023-05-24T00:46:34.736Z,10.32
2023-05-24T00:49:05.128Z,10.32
2023-05-24T00:51:36.412Z,10.36
2023-05-24T00:54:04.871Z,10.39
2023-05-24T00:56:35.477Z,10.41
2023-05-24T00:59:04.673Z,10.42
2023-05-24T01:01:33.320Z,10.42
2023-05-24T01:04:04.146Z,10.42
2023-05-24T01:06:47.355Z,10.39
2023-05-24T01:09:36.401Z,10.33
2023-05-24T01:12:32.852Z,10.30
2023-05-24T01:15:43.646Z,10.29
2023-05-24T01:18:38.580Z,10.26
2023-05-24T01:21:12.883Z,10.26
2023-05-24T01:24:13.257Z,10.25
2023-05-24T01:27:15.867Z,10.21
2023-05-24T01:29:44.706Z,10.12
2023-05-24T01:32:13.845Z,10.02
2023-05-24T01:34:42.075Z,9.93
2023-05-24T01:37:10.371Z,9.89
2023-05-24T01:39:41.914Z,9.84
2023-05-24T01:42:26.501Z,9.82
2023-05-24T01:45:15.246Z,9.81
2023-05-24T01:48:13.931Z,9.82
2023-05-24T01:50:52.333Z,9.86
2023-05-24T01:53:24.560Z,9.86
2023-05-24T01:55:59.833Z,9.84
2023-05-24T01:58:30.850Z,9.82
2023-05-24T02:01:00.685Z,9.83
2023-05-24T02:03:29.361Z,9.81
2023-05-24T02:05:57.656Z,9.84
2023-05-24T02:08:25.900Z,9.90
2023-05-24T02:10:54.129Z,9.92
2023-05-24T02:13:22.413Z,9.95
2023-05-24T02:15:50.716Z,9.97
2023-05-24T02:18:19.312Z,9.99
2023-05-24T02:20:47.535Z,9.99
2023-05-24T02:23:15.797Z,9.99
2023-05-24T02:25:44.009Z,9.99
2023-05-24T02:28:12.276Z,9.98
2023-05-24T02:30:40.652Z,9.94
2023-05-24T02:33:09.072Z,9.91
2023-05-24T02:35:37.381Z,9.92
2023-05-24T02:38:05.774Z,9.94
2023-05-24T02:40:33.957Z,9.95
2023-05-24T02:43:02.300Z,9.95
2023-05-24T02:45:30.652Z,9.95
2023-05-24T02:47:58.894Z,9.96
2023-05-24T02:50:27.193Z,9.98
2023-05-24T02:52:55.413Z,9.98
2023-05-24T02:55:23.647Z,9.93
2023-05-24T02:57:51.846Z,9.90
2023-05-24T03:00:20.318Z,9.92
2023-05-24T03:02:48.561Z,9.92
2023-05-24T03:05:17.704Z,9.92
2023-05-24T03:07:45.932Z,9.94
2023-05-24T03:10:15.976Z,9.97
2023-05-24T03:12:44.370Z,10.00
2023-05-24T03:15:12.613Z,10.06
2023-05-24T03:17:40.885Z,10.13
2023-05-24T03:20:09.520Z,10.13
2023-05-24T03:22:37.736Z,10.13
2023-05-24T03:25:06.709Z,10.16
2023-05-24T03:27:36.455Z,10.17
2023-05-24T03:30:05.445Z,10.18
2023-05-24T03:32:33.788Z,10.20
2023-05-24T03:35:02.101Z,10.26
2023-05-24T03:37:30.357Z,10.28
2023-05-24T03:39:58.629Z,10.28
2023-05-24T03:42:26.888Z,10.31
2023-05-24T03:44:55.166Z,10.32
2023-05-24T03:47:23.516Z,10.37
2023-05-24T03:49:51.802Z,10.39
2023-05-24T03:52:20.015Z,10.47
2023-05-24T03:54:48.217Z,10.55
2023-05-24T03:57:17.504Z,10.62
2023-05-24T03:59:45.746Z,10.67
2023-05-24T04:02:13.979Z,10.69
2023-05-24T04:04:42.281Z,10.73
2023-05-24T04:07:10.524Z,10.78
2023-05-24T04:09:38.741Z,10.86
2023-05-24T04:12:07.045Z,10.96
2023-05-24T04:14:35.295Z,11.09
2023-05-24T04:17:03.931Z,11.12
2023-05-24T04:19:32.226Z,11.01
2023-05-24T04:22:00.483Z,10.91
2023-05-24T04:27:01.720Z,11.24
2023-05-24T04:29:28.582Z,11.36
2023-05-24T04:31:55.416Z,11.57
2023-05-24T04:34:24.321Z,11.76
2023-05-24T04:36:51.184Z,11.93
2023-05-24T04:39:18.386Z,12.06
2023-05-24T04:41:46.663Z,12.17
2023-05-24T04:44:13.944Z,12.31
2023-05-24T04:46:40.808Z,12.38
2023-05-24T04:49:09.004Z,12.44
2023-05-24T04:51:35.953Z,12.57
2023-05-24T04:54:05.502Z,12.74
2023-05-24T04:56:32.374Z,13.00
2023-05-24T04:58:59.353Z,13.27
2023-05-24T05:01:26.388Z,13.40
2023-05-24T05:03:53.902Z,13.49
2023-05-24T05:06:20.837Z,13.53
2023-05-24T05:08:47.787Z,13.63
2023-05-24T05:11:14.815Z,13.73
2023-05-24T05:13:41.835Z,13.87
2023-05-24T05:16:08.853Z,13.99
2023-05-24T05:18:35.844Z,14.08
2023-05-24T05:21:04.234Z,14.17
2023-05-24T05:23:31.080Z,14.23
2023-05-24T05:25:57.967Z,14.26
2023-05-24T05:28:24.841Z,14.39
2023-05-24T05:30:51.664Z,14.52
2023-05-24T05:33:18.573Z,14.56
2023-05-24T05:35:45.556Z,14.58
2023-05-24T05:38:12.600Z,14.71
2023-05-24T05:40:39.434Z,14.88
2023-05-24T05:43:06.514Z,15.03
2023-05-24T05:45:33.438Z,15.27
2023-05-24T05:48:00.403Z,15.63
2023-05-24T05:50:27.267Z,16.08
2023-05-24T05:52:54.342Z,16.47
2023-05-24T05:55:21.257Z,16.80
2023-05-24T05:57:48.095Z,16.93
2023-05-24T06:00:15.666Z,16.90
2023-05-24T06:02:42.632Z,16.85
2023-05-24T06:05:10.343Z,17.00
2023-05-24T06:07:37.440Z,17.21
2023-05-24T06:10:04.992Z,17.39
2023-05-24T06:12:32.157Z,17.58
2023-05-24T06:14:59.089Z,17.76
2023-05-24T06:17:26.069Z,17.84
2023-05-24T06:19:53.014Z,17.94
2023-05-24T06:22:19.918Z,18.01
2023-05-24T06:24:46.985Z,18.17
2023-05-24T06:27:14.119Z,18.31
2023-05-24T06:29:40.992Z,18.37
2023-05-24T06:32:07.951Z,18.44
2023-05-24T06:34:34.818Z,18.44
2023-05-24T06:37:01.675Z,18.42
2023-05-24T06:39:29.080Z,18.49
2023-05-24T06:41:55.934Z,18.65
2023-05-24T06:44:24.628Z,18.72
2023-05-24T06:46:52.992Z,18.65
2023-05-24T06:49:19.862Z,18.39
2023-05-24T06:51:49.696Z,18.13
2023-05-24T06:54:16.549Z,18.17
2023-05-24T06:56:43.426Z,18.35
2023-05-24T06:59:10.346Z,18.54
2023-05-24T07:01:38.880Z,18.72
2023-05-24T07:04:06.274Z,18.91
2023-05-24T07:06:33.146Z,18.99
2023-05-24T07:09:00.207Z,18.93
2023-05-24T07:11:28.395Z,18.79
2023-05-24T07:13:57.030Z,18.60
2023-05-24T07:16:23.987Z,18.44
2023-05-24T07:18:50.872Z,18.33
2023-05-24T07:21:18.278Z,18.28
2023-05-24T07:23:46.670Z,18.32
2023-05-24T07:26:13.542Z,18.35
2023-05-24T07:28:40.522Z,18.49
2023-05-24T07:31:11.076Z,18.64
2023-05-24T07:33:38.448Z,18.64
2023-05-24T07:36:06.209Z,18.66
2023-05-24T07:38:34.181Z,18.68
2023-05-24T07:41:02.706Z,18.71
2023-05-24T07:43:29.641Z,18.69
2023-05-24T07:45:58.072Z,18.71
2023-05-24T07:48:24.980Z,18.96
2023-05-24T07:50:51.939Z,19.14
2023-05-24T07:53:18.889Z,19.39
2023-05-24T07:55:46.022Z,19.72
2023-05-24T07:58:12.924Z,20.00
2023-05-24T08:00:39.737Z,20.58
2023-05-24T08:03:06.714Z,21.11
2023-05-24T08:05:36.804Z,21.47
2023-05-24T08:08:05.052Z,21.47
2023-05-24T08:10:31.914Z,21.30
2023-05-24T08:12:58.766Z,21.34
2023-05-24T08:15:25.698Z,21.40
2023-05-24T08:17:52.620Z,21.32
2023-05-24T08:20:19.634Z,21.26
2023-05-24T08:22:46.552Z,21.34
2023-05-24T08:25:13.593Z,21.58
2023-05-24T08:27:40.684Z,21.65
2023-05-24T08:30:09.200Z,21.49
2023-05-24T08:32:36.763Z,21.35
2023-05-24T08:35:19.181Z,21.47
2023-05-24T08:37:47.510Z,21.66
2023-05-24T08:40:14.611Z,21.93
2023-05-24T08:42:41.635Z,22.32
2023-05-24T08:45:14.431Z,22.49
2023-05-24T08:47:41.474Z,22.45
2023-05-24T08:50:09.375Z,22.29
2023-05-24T08:52:38.578Z,22.59
2023-05-24T08:55:06.665Z,23.23
2023-05-24T08:57:35.430Z,23.99
2023-05-24T09:00:02.382Z,24.82
2023-05-24T09:02:31.066Z,25.64
2023-05-24T09:04:59.600Z,25.91
2023-05-24T09:07:33.007Z,26.12
2023-05-24T09:10:07.647Z,26.91
2023-05-24T09:12:43.550Z,27.44
2023-05-24T09:15:11.958Z,27.53
2023-05-24T09:17:38.960Z,27.90
2023-05-24T09:20:07.936Z,27.79
2023-05-24T09:22:41.601Z,27.45
2023-05-24T09:25:13.344Z,27.38
2023-05-24T09:27:40.752Z,27.90
2023-05-24T09:30:10.345Z,28.87
2023-05-24T09:32:38.633Z,29.89
2023-05-24T09:35:09.222Z,30.97
2023-05-24T09:37:37.978Z,31.45
2023-05-24T09:40:06.372Z,30.44
2023-05-24T09:42:34.839Z,29.33
2023-05-24T09:45:07.792Z,28.91
2023-05-24T09:47:38.340Z,29.80
2023-05-24T09:50:16.154Z,30.41
2023-05-24T09:52:43.985Z,31.56
2023-05-24T09:55:20.277Z,33.04
2023-05-24T09:58:01.312Z,34.40
2023-05-24T10:00:32.451Z,33.56
2023-05-24T10:03:04.072Z,32.29
2023-05-24T10:05:30.989Z,32.30
2023-05-24T10:08:00.156Z,34.10
2023-05-24T10:10:33.425Z,34.93
2023-05-24T10:13:02.582Z,36.06
2023-05-24T10:15:30.243Z,35.34
2023-05-24T10:17:58.835Z,34.12
2023-05-24T10:20:25.893Z,34.79
2023-05-24T10:23:09.559Z,33.80
2023-05-24T10:25:45.080Z,31.70
2023-05-24T10:28:17.624Z,30.24
2023-05-24T10:31:14.164Z,29.82
2023-05-24T10:33:45.789Z,31.11
2023-05-24T10:36:15.912Z,32.40
2023-05-24T10:38:46.197Z,33.94
2023-05-24T10:41:13.483Z,34.64
2023-05-24T10:43:56.786Z,35.84
2023-05-24T10:46:33.606Z,36.57
2023-05-24T10:49:00.994Z,37.10
2023-05-24T10:51:39.065Z,35.53
2023-05-24T10:54:25.869Z,33.83
2023-05-24T10:56:52.991Z,33.79
2023-05-24T10:59:38.453Z,33.56
2023-05-24T11:02:10.591Z,32.08
2023-05-24T11:04:41.347Z,31.00
2023-05-24T11:07:13.533Z,30.38
2023-05-24T11:09:42.439Z,31.71
2023-05-24T11:12:09.485Z,33.91
2023-05-24T11:14:39.597Z,36.27
2023-05-24T11:17:08.929Z,36.78
2023-05-24T11:19:44.490Z,36.53
2023-05-24T11:22:14.686Z,35.46
2023-05-24T11:24:44.141Z,34.84
2023-05-24T11:27:13.480Z,33.82
2023-05-24T11:29:43.685Z,32.86
2023-05-24T11:32:17.135Z,33.23
2023-05-24T11:34:49.077Z,32.22
2023-05-24T11:37:18.445Z,31.25
2023-05-24T11:39:51.994Z,30.45
2023-05-24T11:42:21.541Z,29.58
2023-05-24T11:44:52.770Z,28.85
2023-05-24T11:47:20.331Z,28.45
2023-05-24T11:49:51.854Z,28.28
2023-05-24T11:52:20.875Z,28.19
2023-05-24T11:54:49.423Z,28.01
2023-05-24T11:57:22.975Z,27.87
2023-05-24T11:59:49.970Z,27.96
2023-05-24T12:02:18.472Z,28.01
2023-05-24T12:04:45.682Z,29.26
2023-05-24T12:07:12.863Z,29.94
2023-05-24T12:09:40.803Z,30.54
2023-05-24T12:12:08.361Z,30.00
2023-05-24T12:14:35.788Z,31.43
2023-05-24T12:17:02.927Z,33.42
2023-05-24T12:19:33.881Z,33.74
2023-05-24T12:22:07.496Z,33.13
2023-05-24T12:24:37.440Z,32.12
2023-05-24T12:27:05.771Z,33.34
2023-05-24T12:29:40.958Z,34.95
2023-05-24T12:32:12.833Z,36.20
2023-05-24T12:34:43.239Z,36.41
2023-05-24T12:37:12.046Z,37.08
2023-05-24T12:39:39.185Z,38.05
2023-05-24T12:42:06.302Z,38.61
2023-05-24T12:44:39.229Z,39.10
2023-05-24T12:47:08.484Z,39.58
2023-05-24T12:49:36.186Z,39.88
2023-05-24T12:52:04.415Z,40.39
2023-05-24T12:54:31.537Z,40.80
2023-05-24T12:56:58.612Z,41.06
2023-05-24T12:59:26.754Z,41.29
2023-05-24T13:01:53.972Z,41.32
2023-05-24T13:04:23.785Z,41.31
2023-05-24T13:06:50.864Z,41.49
2023-05-24T13:09:17.797Z,41.51
2023-05-24T13:11:44.680Z,41.61
2023-05-24T13:14:11.989Z,41.81
2023-05-24T13:16:38.982Z,41.85
2023-05-24T13:19:06.317Z,41.63
2023-05-24T13:21:33.268Z,41.28
2023-05-24T13:24:00.514Z,41.12
2023-05-24T13:26:27.529Z,41.12
2023-05-24T13:29:26.629Z,40.99
2023-05-24T13:31:41.757Z,41.02
2023-05-24T13:34:08.933Z,40.93
2023-05-24T13:36:36.275Z,40.75
2023-05-24T13:39:14.781Z,40.68
2023-05-24T13:41:44.203Z,40.65
2023-05-24T13:44:14.559Z,40.43
2023-05-24T13:46:43.160Z,40.03
2023-05-24T13:49:12.124Z,39.54
2023-05-24T13:51:40.204Z,39.27
2023-05-24T13:54:07.400Z,39.08
2023-05-24T13:56:36.338Z,39.21
2023-05-24T13:59:05.039Z,39.44
2023-05-24T14:01:34.848Z,39.45
2023-05-24T14:04:04.989Z,39.38
2023-05-24T14:06:33.154Z,38.78
2023-05-24T14:09:00.386Z,38.13
2023-05-24T14:11:27.617Z,38.30
2023-05-24T14:16:24.740Z,35.96
2023-05-24T14:18:52.277Z,33.98
2023-05-24T14:21:20.212Z,33.40
2023-05-24T14:23:47.228Z,33.16
2023-05-24T14:26:14.445Z,32.75
2023-05-24T14:28:41.297Z,32.94
2023-05-24T14:31:08.324Z,33.70
2023-05-24T14:33:35.435Z,34.35
2023-05-24T14:36:02.527Z,34.62
2023-05-24T14:38:29.791Z,34.73
2023-05-24T14:40:56.930Z,34.80
2023-05-24T14:43:26.019Z,34.95
2023-05-24T14:45:52.949Z,35.14
2023-05-24T14:48:19.851Z,35.46
2023-05-24T14:50:46.998Z,35.74
2023-05-24T14:53:14.055Z,35.81
2023-05-24T14:55:43.128Z,35.76
2023-05-24T14:58:12.357Z,35.69
2023-05-24T15:00:41.980Z,35.55
2023-05-24T15:03:10.179Z,35.47
2023-05-24T15:05:37.500Z,35.21
2023-05-24T15:08:04.573Z,33.69
2023-05-24T15:10:31.638Z,32.01
2023-05-24T15:12:58.509Z,30.63
2023-05-24T15:15:25.375Z,29.62
2023-05-24T15:17:52.264Z,29.13
2023-05-24T15:20:19.685Z,28.84
2023-05-24T15:22:47.370Z,29.55
2023-05-24T15:25:14.321Z,29.49
2023-05-24T15:27:41.506Z,28.79
2023-05-24T15:30:08.587Z,27.91
2023-05-24T15:32:35.636Z,27.23
2023-05-24T15:35:02.970Z,26.53
2023-05-24T15:37:30.220Z,25.93
2023-05-24T15:39:57.391Z,25.41
2023-05-24T15:42:24.243Z,24.86
2023-05-24T15:44:51.350Z,24.28
2023-05-24T15:47:21.273Z,23.76
2023-05-24T15:49:50.123Z,23.33
2023-05-24T15:52:17.282Z,23.00
2023-05-24T15:54:44.210Z,22.70
2023-05-24T15:57:11.073Z,22.42
2023-05-24T15:59:39.430Z,22.25
2023-05-24T16:02:08.588Z,22.52
2023-05-24T16:04:35.506Z,22.73
2023-05-24T16:07:02.584Z,22.83
2023-05-24T16:09:29.675Z,22.84
2023-05-24T16:11:56.671Z,22.80
2023-05-24T16:14:23.820Z,22.71
2023-05-24T16:16:50.718Z,22.63
2023-05-24T16:19:18.112Z,22.51
2023-05-24T16:21:45.045Z,22.39
2023-05-24T16:24:11.938Z,22.43
2023-05-24T16:26:39.448Z,23.38
2023-05-24T16:29:06.697Z,24.37
2023-05-24T16:31:33.841Z,25.19
2023-05-24T16:34:01.162Z,25.40
2023-05-24T16:36:28.507Z,25.20
2023-05-24T16:38:55.408Z,25.02
2023-05-24T16:41:22.646Z,24.76
2023-05-24T16:43:49.849Z,24.38
2023-05-24T16:46:17.197Z,23.90
2023-05-24T16:48:44.127Z,23.47
2023-05-24T16:51:11.376Z,23.11
2023-05-24T16:53:38.737Z,22.87
2023-05-24T16:56:05.805Z,22.69
2023-05-24T16:58:33.066Z,22.53
2023-05-24T17:01:00.331Z,22.38
2023-05-24T17:03:27.356Z,22.21
2023-05-24T17:05:56.545Z,22.10
2023-05-24T17:08:24.809Z,22.03
2023-05-24T17:10:52.225Z,21.96
2023-05-24T17:13:19.537Z,21.93
2023-05-24T17:15:46.796Z,21.98
2023-05-24T17:18:14.082Z,22.00
2023-05-24T17:20:41.139Z,22.01
2023-05-24T17:23:09.708Z,22.14
2023-05-24T17:25:37.270Z,22.37
2023-05-24T17:28:04.117Z,22.52
2023-05-24T17:30:31.373Z,22.59
2023-05-24T17:32:59.588Z,22.62
2023-05-24T17:35:27.075Z,22.63
2023-05-24T17:37:54.485Z,22.66
2023-05-24T17:40:21.937Z,22.64
2023-05-24T17:42:49.484Z,22.63
2023-05-24T17:45:17.682Z,22.58
2023-05-24T17:47:44.683Z,22.56
2023-05-24T17:50:12.271Z,22.51
2023-05-24T17:52:39.690Z,22.44
2023-05-24T17:55:08.789Z,22.35
2023-05-24T17:57:36.410Z,22.21
2023-05-24T18:00:07.130Z,22.11
2023-05-24T18:02:34.197Z,21.95
2023-05-24T18:05:01.179Z,21.67
2023-05-24T18:07:28.067Z,21.39
2023-05-24T18:09:55.169Z,21.15
2023-05-24T18:12:22.412Z,20.87
2023-05-24T18:14:49.685Z,20.54
2023-05-24T18:17:17.116Z,20.17
2023-05-24T18:19:44.434Z,19.89
2023-05-24T18:22:11.354Z,19.65
2023-05-24T18:24:40.474Z,19.39
2023-05-24T18:27:08.383Z,19.13
2023-05-24T18:29:35.280Z,18.90
2023-05-24T18:32:02.370Z,18.74
2023-05-24T18:34:32.643Z,18.54
2023-05-24T18:37:01.041Z,18.39
2023-05-24T18:39:28.335Z,18.21
2023-05-24T18:41:57.539Z,18.01
2023-05-24T18:44:26.375Z,17.88
2023-05-24T18:46:56.389Z,17.76
2023-05-24T18:49:23.671Z,17.67
2023-05-24T18:51:50.969Z,17.57
2023-05-24T18:54:17.978Z,17.50
2023-05-24T18:56:45.270Z,17.45
2023-05-24T18:59:12.640Z,17.36
2023-05-24T19:01:40.480Z,17.27
2023-05-24T19:04:07.812Z,17.16
2023-05-24T19:06:36.214Z,17.08
2023-05-24T19:09:03.491Z,16.93
2023-05-24T19:11:31.027Z,16.80
2023-05-24T19:13:57.900Z,16.70
2023-05-24T19:16:28.960Z,16.60
2023-05-24T19:18:59.210Z,16.51
2023-05-24T19:21:27.624Z,16.45
2023-05-24T19:23:54.881Z,16.39
2023-05-24T19:26:22.781Z,16.34
2023-05-24T19:28:50.040Z,16.28
2023-05-24T19:31:24.127Z,16.21
2023-05-24T19:34:00.004Z,16.11
2023-05-24T19:36:29.944Z,16.04
2023-05-24T19:38:59.865Z,15.95
2023-05-24T19:41:27.179Z,15.86
2023-05-24T19:43:56.258Z,15.78
2023-05-24T19:46:28.644Z,15.66
2023-05-24T19:48:56.040Z,15.53
2023-05-24T19:51:23.386Z,15.39
2023-05-24T19:53:50.757Z,15.30
2023-05-24T19:56:17.661Z,15.18
2023-05-24T19:58:44.544Z,15.10
2023-05-24T20:01:11.837Z,15.01
2023-05-24T20:03:41.810Z,14.90
2023-05-24T20:06:08.686Z,14.81
2023-05-24T20:08:36.005Z,14.73
2023-05-24T20:11:03.420Z,14.62
2023-05-24T20:13:33.548Z,14.53
2023-05-24T20:16:00.929Z,14.44
2023-05-24T20:18:27.948Z,14.35
2023-05-24T20:20:54.887Z,14.27
2023-05-24T20:23:25.405Z,14.20
2023-05-24T20:25:56.530Z,14.11
2023-05-24T20:28:30.691Z,14.04
2023-05-24T20:30:59.027Z,13.95
2023-05-24T20:33:26.470Z,13.87
2023-05-24T20:35:53.419Z,13.83
2023-05-24T20:38:22.060Z,13.77
2023-05-24T20:40:49.354Z,13.71
2023-05-24T20:43:16.264Z,13.64
2023-05-24T20:45:45.403Z,13.58
2023-05-24T20:48:13.366Z,13.51
2023-05-24T20:50:40.266Z,13.46
2023-05-24T20:53:07.117Z,13.40
2023-05-24T20:55:33.965Z,13.37
2023-05-24T20:58:01.261Z,13.32
2023-05-24T21:00:28.128Z,13.28
2023-05-24T21:02:55.085Z,13.28
2023-05-24T21:05:22.230Z,13.26
2023-05-24T21:07:49.100Z,13.20
2023-05-24T21:10:19.551Z,13.13
2023-05-24T21:12:48.210Z,13.03
2023-05-24T21:15:15.535Z,12.92
2023-05-24T21:17:42.788Z,12.89
2023-05-24T21:20:10.265Z,12.84
2023-05-24T21:22:37.177Z,12.81
2023-05-24T21:25:05.161Z,12.76
2023-05-24T21:27:32.022Z,12.73
2023-05-24T21:29:59.162Z,12.73
2023-05-24T21:32:26.026Z,12.71
2023-05-24T21:34:52.895Z,12.65
2023-05-24T21:37:19.733Z,12.55
2023-05-24T21:39:46.586Z,12.53
2023-05-24T21:42:13.463Z,12.49
2023-05-24T21:44:40.302Z,12.46
2023-05-24T21:47:07.179Z,12.42
2023-05-24T21:49:34.040Z,12.38
2023-05-24T21:52:00.906Z,12.33
2023-05-24T21:54:27.899Z,12.28
2023-05-24T21:56:54.842Z,12.25
2023-05-24T21:59:21.758Z,12.24
2023-05-24T22:01:48.991Z,12.23
2023-05-24T22:04:16.207Z,12.24
2023-05-24T22:06:43.124Z,12.22
2023-05-24T22:09:12.015Z,12.22
2023-05-24T22:11:39.415Z,12.20
2023-05-24T22:14:06.833Z,12.20
2023-05-24T22:16:33.720Z,12.16
2023-05-24T22:19:00.640Z,12.12
2023-05-24T22:21:27.637Z,12.16
2023-05-24T22:23:54.490Z,12.14
2023-05-24T22:26:21.713Z,12.10
2023-05-24T22:28:56.321Z,12.07
2023-05-24T22:31:24.415Z,12.00
2023-05-24T22:33:52.638Z,11.92
2023-05-24T22:36:19.539Z,11.85
2023-05-24T22:38:46.431Z,11.79
2023-05-24T22:41:13.300Z,11.72
2023-05-24T22:43:40.160Z,11.67
2023-05-24T22:46:09.225Z,11.64
2023-05-24T22:48:37.560Z,11.65
2023-05-24T22:51:04.664Z,11.63
2023-05-24T22:53:31.643Z,11.62
2023-05-24T22:55:58.462Z,11.60
2023-05-24T22:58:25.316Z,11.61
2023-05-24T23:00:52.337Z,11.61
2023-05-24T23:03:19.179Z,11.61
2023-05-24T23:05:46.072Z,11.53
2023-05-24T23:08:13.123Z,11.48
2023-05-24T23:10:40.212Z,11.45
2023-05-24T23:13:07.038Z,11.44
2023-05-24T23:15:34.172Z,11.37
2023-05-24T23:18:01.030Z,11.32
2023-05-24T23:20:28.095Z,11.29
2023-05-24T23:22:54.971Z,11.25
2023-05-24T23:25:21.866Z,11.23
2023-05-24T23:27:48.758Z,11.23
2023-05-24T23:30:15.827Z,11.21
2023-05-24T23:32:44.326Z,11.20
2023-05-24T23:35:11.181Z,11.22
2023-05-24T23:37:38.053Z,11.20
2023-05-24T23:40:07.210Z,11.16
2023-05-24T23:42:34.199Z,11.11
2023-05-24T23:45:03.800Z,11.07
2023-05-24T23:47:30.692Z,11.04
2023-05-24T23:49:57.541Z,11.00
2023-05-24T23:52:24.374Z,10.98
2023-05-24T23:54:51.255Z,10.96
2023-05-24T23:57:19.021Z,10.98
2023-05-24T23:59:46.437Z,10.98
